Latest Weather Observations for Mandurah

IDW60901

Issued at 3:01 pm WST Sunday 1 March 2015 (issued every 10 minutes, with the page automatically refreshed every 10 minutes)

About weather observations | Map of Perth area stations | Latest observations for Perth area | Other Formats
Station Details ID: 009977 Name: MANDURAH Lat: -32.52 Lon: 115.71 Height: 3.0 m
Data from the previous 72 hours. | See also: Recent months at Mandurah
Date/Time
WST
Tmp

°C
App
Tmp
°C
Dew
Point
°C
Rel
Hum
%
Delta-T

°C
Wind Press
QNH
hPa
Press
MSL
hPa
Rain
since
9 am
mm
Dir
 
Spd
km/h
Gust
km/h
Spd
kts
Gust
kts
01/03:00pm 26.8 22.9 14.5 46 7.4 SW 28 37 15 20 1007.9 1007.9 0.0
01/02:30pm 27.4 24.2 15.4 48 7.3 SW 26 39 14 21 1008.1 1008.1 0.0
01/02:00pm 27.8 24.9 14.1 43 8.2 SW 22 32 12 17 1008.5 1008.5 0.0
01/01:30pm 27.3 24.1 15.3 48 7.3 SW 26 37 14 20 1008.9 1008.9 0.0
01/01:00pm 27.5 25.5 15.5 48 7.3 SW 20 28 11 15 1009.3 1009.3 0.0
01/12:30pm 28.2 26.4 15.5 46 7.8 WSW 19 28 10 15 1009.7 1009.7 0.0
01/12:00pm 28.2 27.5 13.3 40 8.8 SSW 9 15 5 8 1010.2 1010.2 0.0
01/11:30am 27.1 25.8 11.2 37 9.0 S 9 13 5 7 1010.6 1010.6 0.0
01/11:00am 26.1 25.0 11.8 41 8.2 SSE 9 13 5 7 1011.0 1011.0 0.0
01/10:30am 24.9 23.1 12.2 45 7.3 S 13 17 7 9 1011.0 1011.0 0.0
01/10:00am 24.1 22.4 12.4 48 6.7 SSE 13 17 7 9 1011.3 1011.3 0.0
01/09:30am 24.2 23.5 11.9 46 7.0 ESE 7 11 4 6 1011.7 1011.7 0.0
01/09:00am 22.4 21.2 11.5 50 6.1 SE 9 15 5 8 1011.9 1011.9 0.0
01/08:30am 20.8 19.6 11.7 56 5.1 SE 9 13 5 7 1012.0 1012.0 0.0
01/08:00am 19.5 18.4 11.8 61 4.3 ESE 9 15 5 8 1011.9 1011.9 0.0
01/07:30am 18.3 16.7 11.4 64 3.8 ESE 11 17 6 9 1012.3 1012.3 0.0
01/07:00am 17.5 16.2 11.3 67 3.4 SE 9 17 5 9 1012.4 1012.4 0.0
01/06:30am 16.8 14.6 10.9 68 3.2 ESE 13 19 7 10 1012.1 1012.1 0.0
01/06:00am 16.8 15.0 10.9 68 3.2 ESE 11 17 6 9 1011.7 1011.7 0.0
01/05:30am 17.0 15.2 10.8 67 3.3 SE 11 17 6 9 1011.7 1011.7 0.0
01/05:00am 17.1 14.6 10.9 67 3.3 ESE 15 22 8 12 1011.3 1011.3 0.0
01/04:30am 17.3 14.6 10.4 64 3.7 ESE 15 22 8 12 1011.6 1011.6 0.0
01/04:00am 17.5 15.2 10.6 64 3.7 ESE 13 20 7 11 1011.8 1011.8 0.0
01/03:30am 17.9 15.6 10.5 62 4.0 ESE 13 22 7 12 1011.9 1011.9 0.0
01/03:00am 18.3 16.0 10.4 60 4.2 ESE 13 22 7 12 1011.9 1011.9 0.0
01/02:30am 18.6 16.3 10.4 59 4.4 ESE 13 22 7 12 1011.7 1011.7 0.0
01/02:00am 19.0 15.9 10.3 57 4.7 ESE 17 26 9 14 1011.8 1011.8 0.0
01/01:30am 19.4 16.3 10.4 56 4.8 E 17 26 9 14 1011.8 1011.8 0.0
01/01:00am 19.9 16.4 10.3 54 5.2 ESE 19 32 10 17 1011.8 1011.8 0.0
01/12:30am 20.6 17.1 10.1 51 5.7 ESE 19 28 10 15 1011.9 1011.9 0.0
01/12:00am 21.3 17.8 10.2 49 6.0 E 19 32 10 17 1011.9 1011.9 0.0
 
Date/Time
WST
Tmp

°C
App
Tmp
°C
Dew
Point
°C
Rel
Hum
%
Delta-T

°C
Wind Press
QNH
hPa
Press
MSL
hPa
Rain
since
9 am
mm
Dir
 
Spd
km/h
Gust
km/h
Spd
kts
Gust
kts
28/11:30pm 21.9 18.7 10.1 47 6.4 ESE 17 24 9 13 1012.3 1012.3 0.0
28/11:00pm 22.2 19.4 10.0 46 6.6 ESE 15 22 8 12 1012.4 1012.4 0.0
28/10:30pm 22.3 20.3 11.4 50 6.1 SE 13 17 7 9 1012.5 1012.5 0.0
28/10:00pm 22.5 21.1 13.3 56 5.3 SE 13 19 7 10 1012.5 1012.5 0.0
28/09:30pm 22.8 23.0 16.8 69 3.7 SSE 11 17 6 9 1012.6 1012.6 0.0
28/09:00pm 23.2 23.4 16.7 67 4.0 SSE 11 15 6 8 1012.8 1012.8 0.0
28/08:30pm 23.3 23.1 16.6 66 4.1 S 13 20 7 11 1012.5 1012.5 0.0
28/08:00pm 23.1 21.6 15.4 62 4.6 S 17 22 9 12 1012.3 1012.3 0.0
28/07:30pm 23.1 21.2 15.2 61 4.7 S 19 28 10 15 1012.2 1012.2 0.0
28/07:00pm 23.2 21.2 15.0 60 4.9 S 19 26 10 14 1012.1 1012.1 0.0
28/06:30pm 23.5 21.3 14.5 57 5.3 SSW 19 32 10 17 1012.1 1012.1 0.0
28/06:00pm 23.6 20.8 14.3 56 5.5 SSW 22 37 12 20 1012.0 1012.0 0.0
28/05:30pm 24.0 21.1 14.1 54 5.8 SSW 22 35 12 19 1012.0 1012.0 0.0
28/05:00pm 24.6 21.3 14.1 52 6.2 SSW 24 33 13 18 1012.2 1012.2 0.0
28/04:30pm 25.2 22.1 13.4 48 6.9 SW 22 32 12 17 1012.6 1012.6 0.0
28/04:00pm 25.6 22.5 13.5 47 7.1 SSW 22 32 12 17 1012.8 1012.8 0.0
28/03:30pm 26.9 24.2 14.6 46 7.4 WSW 22 32 12 17 1013.0 1013.0 0.0
28/03:00pm 26.9 24.1 14.3 46 7.5 SW 22 41 12 22 1013.2 1013.2 0.0
28/02:30pm 27.1 23.7 13.8 44 7.9 SW 24 39 13 21 1013.6 1013.6 0.0
28/02:00pm 29.8 27.8 8.8 27 11.6 SE 9 17 5 9 1014.2 1014.2 0.0
28/01:30pm 30.5 28.1 8.8 26 12.1 E 11 20 6 11 1014.5 1014.5 0.0
28/01:00pm 29.2 27.6 8.8 28 11.3 ESE 7 17 4 9 1015.0 1015.0 0.0
28/12:30pm 27.1 24.9 9.5 33 9.7 SE 11 19 6 10 1015.4 1015.4 0.0
28/12:00pm 27.1 24.8 10.3 35 9.4 E 13 22 7 12 1015.7 1015.7 0.0
28/11:30am 26.9 24.6 10.6 36 9.2 ESE 13 22 7 12 1016.1 1016.1 0.0
28/11:00am 25.4 23.2 10.8 40 8.2 SE 13 22 7 12 1016.5 1016.5 0.0
28/10:30am 24.5 22.2 11.8 45 7.2 SE 15 20 8 11 1017.0 1017.0 0.0
28/10:00am 24.1 21.7 11.4 45 7.1 ESE 15 20 8 11 1017.2 1017.2 0.0
28/09:30am 23.4 21.9 11.8 48 6.5 ESE 11 19 6 10 1017.3 1017.3 0.0
28/09:00am 21.4 19.3 12.3 56 5.1 SE 15 26 8 14 1017.4 1017.4 0.0
28/08:30am 20.2 17.3 12.2 60 4.5 SE 19 28 10 15 1017.4 1017.4 0.0
28/08:00am 19.2 16.7 12.2 64 3.9 SSE 17 24 9 13 1017.3 1017.3 0.0
28/07:30am 18.3 15.9 12.5 69 3.2 SE 17 24 9 13 1017.1 1017.1 0.0
28/07:00am 18.1 15.7 12.8 71 3.0 SSE 17 22 9 12 1016.6 1016.6 0.0
28/06:30am 18.0 15.7 12.9 72 2.9 SE 17 22 9 12 1016.1 1016.1 0.0
28/06:00am 18.1 16.0 12.5 70 3.1 SSE 15 22 8 12 1015.9 1015.9 0.0
28/05:30am 18.1 15.4 11.7 66 3.5 SE 17 24 9 13 1015.6 1015.6 0.0
28/05:00am 18.1 15.1 12.1 68 3.3 SE 19 26 10 14 1015.3 1015.3 0.0
28/04:30am 18.4 15.4 12.4 68 3.3 SSE 20 32 11 17 1015.0 1015.0 0.0
28/04:00am 18.7 15.7 12.0 65 3.7 SE 19 26 10 14 1014.9 1014.9 0.0
28/03:30am 18.9 15.7 11.9 64 3.9 SE 20 28 11 15 1014.7 1014.7 0.0
28/03:00am 19.1 16.5 13.1 68 3.4 SE 19 22 10 12 1014.6 1014.6 0.0
28/02:30am 19.3 16.7 13.3 68 3.4 SE 19 26 10 14 1014.5 1014.5 0.0
28/02:00am 19.5 17.0 13.4 68 3.5 SE 19 26 10 14 1014.4 1014.4 0.0
28/01:30am 19.9 17.5 13.8 68 3.5 SE 19 26 10 14 1014.3 1014.3 0.0
28/01:00am 20.2 18.1 13.6 66 3.8 SE 17 24 9 13 1014.2 1014.2 0.0
28/12:30am 20.6 17.6 13.8 65 3.9 SE 22 32 12 17 1013.7 1013.7 0.0
28/12:00am 20.8 18.5 14.2 66 3.8 SSE 19 26 10 14 1013.7 1013.7 0.0
 
Date/Time
WST
Tmp

°C
App
Tmp
°C
Dew
Point
°C
Rel
Hum
%
Delta-T

°C
Wind Press
QNH
hPa
Press
MSL
hPa
Rain
since
9 am
mm
Dir
 
Spd
km/h
Gust
km/h
Spd
kts
Gust
kts
27/11:30pm 21.0 19.3 14.6 67 3.7 SSE 17 26 9 14 1013.5 1013.5 0.0
27/11:00pm 21.3 19.0 14.7 66 3.9 SSE 20 30 11 16 1013.1 1013.1 0.0
27/10:30pm 21.6 18.8 14.3 63 4.3 SSE 22 33 12 18 1012.9 1012.9 0.0
27/10:00pm 22.2 19.8 14.3 61 4.6 S 20 33 11 18 1012.9 1012.9 0.0
27/09:30pm 22.7 19.6 14.5 60 4.8 S 24 39 13 21 1012.5 1012.5 0.0
27/09:00pm 22.8 21.0 15.9 65 4.2 S 20 39 11 21 1012.0 1012.0 0.0
27/08:30pm 22.4 20.0 16.4 69 3.6 SSW 24 39 13 21 1011.7 1011.7 0.0
27/08:00pm 22.1 20.7 17.0 73 3.1 SSW 20 35 11 19 1011.4 1011.4 0.0
27/07:30pm 22.1 20.2 16.8 72 3.2 SSW 22 35 12 19 1011.2 1011.2 0.0
27/07:00pm 22.3 20.4 16.8 71 3.4 SSW 22 35 12 19 1011.0 1011.0 0.0
27/06:30pm 22.7 21.3 15.5 64 4.3 SSW 17 30 9 16 1010.9 1010.9 0.0
27/06:00pm 22.9 20.7 16.0 65 4.2 SSW 22 39 12 21 1010.6 1010.6 0.0
27/05:30pm 23.4 21.1 15.7 62 4.6 SSW 22 35 12 19 1010.5 1010.5 0.0
27/05:00pm 23.9 21.3 15.9 61 4.9 SW 24 35 13 19 1010.4 1010.4 0.0
27/04:30pm 24.1 20.7 15.9 60 5.0 SW 28 41 15 22 1010.0 1010.0 0.0
27/04:00pm 24.3 20.8 15.5 58 5.3 SW 28 41 15 22 1009.8 1009.8 0.0
27/03:30pm 24.4 20.4 15.3 57 5.5 SW 30 46 16 25 1009.8 1009.8 0.0
27/03:00pm 24.8 20.6 14.6 53 6.1 SW 30 43 16 23 1009.7 1009.7 0.0
27/02:30pm 24.4 20.3 14.8 55 5.7 SW 30 43 16 23 1009.9 1009.9 0.0
27/02:00pm 24.4 20.5 15.6 58 5.3 SW 30 43 16 23 1009.8 1009.8 0.0
27/01:30pm 24.6 20.9 15.0 55 5.7 SW 28 43 15 23 1010.0 1010.0 0.0
27/01:00pm 24.2 20.2 15.1 56 5.5 SW 30 43 16 23 1010.0 1010.0 0.0
27/12:30pm 24.6 20.5 15.0 55 5.7 SW 30 43 16 23 1010.1 1010.1 0.0
27/12:00pm 24.6 22.0 15.0 55 5.8 SSW 22 33 12 18 1009.9 1009.9 0.0
27/11:30am 24.4 21.5 13.9 52 6.2 S 22 32 12 17 1010.0 1010.0 0.0
27/11:00am 23.6 20.4 14.3 56 5.5 SSW 24 33 13 18 1010.2 1010.2 0.0
27/10:30am 23.1 20.5 14.9 60 4.9 SSW 22 35 12 19 1010.1 1010.1 0.0
27/10:00am 22.7 20.3 15.5 64 4.3 SSW 22 32 12 17 1009.9 1009.9 0.0
27/09:30am 22.4 20.5 15.7 66 4.0 SSW 20 32 11 17 1009.6 1009.6 0.0
27/09:00am 21.8 19.7 16.3 71 3.3 S 22 39 12 21 1009.3 1009.3 0.0
27/08:30am 21.4 19.6 17.0 76 2.7 SSW 22 33 12 18 1009.0 1009.0 0.0
27/08:00am 21.3 19.8 17.7 80 2.2 SSW 22 32 12 17 1008.6 1008.6 0.0
27/07:30am 21.2 19.4 17.8 81 2.1 SSW 24 35 13 19 1008.4 1008.4 0.0
27/07:00am 21.2 20.2 18.0 82 2.0 SSW 20 33 11 18 1008.0 1008.0 0.0
27/06:30am 21.3 20.1 18.5 84 1.8 SSW 22 32 12 17 1007.5 1007.5 0.0
27/06:00am 21.7 21.2 18.7 83 1.9 SSW 19 28 10 15 1006.9 1006.9 0.0
27/05:30am 21.9 22.2 19.5 86 1.5 SSW 17 28 9 15 1006.4 1006.4 0.0
27/05:00am 21.9 21.8 19.5 86 1.5 SSW 19 32 10 17 1006.3 1006.3 0.0
27/04:30am 21.7 21.5 19.4 87 1.5 SSW 19 32 10 17 1006.0 1006.0 0.0
27/04:00am 21.1 21.7 20.3 95 0.5 SSW 17 24 9 13 1005.8 1005.8 0.0
27/03:30am 21.2 20.8 20.2 94 0.6 SW 22 33 12 18 1005.6 1005.6 0.0
27/03:00am 21.7 21.5 19.8 89 1.2 SSW 20 30 11 16 1005.3 1005.3 0.0
27/02:30am 21.9 21.8 20.0 89 1.2 SW 20 32 11 17 1005.3 1005.3 0.0
27/02:00am 22.0 22.1 20.3 90 1.1 SW 20 30 11 16 1005.3 1005.3 0.0
27/01:30am 22.1 22.5 20.6 91 1.0 SW 19 28 10 15 1005.3 1005.3 0.0
27/01:00am 22.6 24.3 20.9 90 1.1 SW 13 20 7 11 1005.5 1005.5 0.0
27/12:30am 22.8 24.4 20.7 88 1.4 SW 13 19 7 10 1005.6 1005.6 0.0
27/12:00am 23.3 26.0 20.2 83 2.0 SW 6 9 3 5 1005.4 1005.4 0.0
 
Date/Time
WST
Tmp

°C
App
Tmp
°C
Dew
Point
°C
Rel
Hum
%
Delta-T

°C
Wind Press
QNH
hPa
Press
MSL
hPa
Rain
since
9 am
mm
Dir
 
Spd
km/h
Gust
km/h
Spd
kts
Gust
kts
26/11:30pm 23.8 26.5 20.7 83 2.0 SSW 7 11 4 6 1005.4 1005.4 0.0
26/11:00pm 24.1 26.5 20.8 82 2.2 SSW 9 13 5 7 1005.5 1005.5 0.0
26/10:30pm 24.3 26.2 20.6 80 2.4 S 11 17 6 9 1005.5 1005.5 0.0
26/10:00pm 24.3 26.5 20.4 79 2.5 SSW 9 13 5 7 1005.9 1005.9 0.0
26/09:30pm 24.2 26.8 20.5 80 2.4 SSW 7 17 4 9 1005.8 1005.8 0.0
26/09:00pm 24.2 26.3 20.9 82 2.2 SW 11 17 6 9 1005.8 1005.8 0.0
26/08:30pm 24.2 26.9 20.7 81 2.3 SSW 7 11 4 6 1005.6 1005.6 0.0
26/08:00pm 24.2 26.4 20.3 79 2.5 SSW 9 13 5 7 1005.3 1005.3 0.0
26/07:30pm 24.8 27.3 20.3 76 2.9 SW 7 11 4 6 1005.0 1005.0 0.0
26/07:00pm 25.2 27.1 19.8 72 3.5 SSW 9 13 5 7 1004.7 1004.7 0.0
26/06:30pm 25.6 27.9 19.5 69 3.9 SSW 6 9 3 5 1004.7 1004.7 0.0
26/06:00pm 25.7 27.9 20.5 73 3.4 SW 9 15 5 8 1004.6 1004.6 0.0
26/05:30pm 26.5 27.1 20.3 68 4.1 WSW 17 24 9 13 1004.5 1004.5 0.0
26/05:00pm 27.5 29.3 19.6 62 5.1 SW 9 15 5 8 1004.5 1004.5 0.0
26/04:30pm 26.8 27.0 20.6 69 4.1 SW 20 28 11 15 1004.6 1004.6 0.0
26/04:00pm 28.7 29.2 19.3 56 6.1 WSW 15 24 8 13 1004.5 1004.5 0.0
26/03:30pm 29.0 29.4 19.9 58 6.0 WSW 17 22 9 12 1004.5 1004.5 0.0

Latest Capital City Observations: Canberra | Sydney | Melbourne | Brisbane | Adelaide | Perth | Hobart | Darwin

Other Formats:

Comma delimited format used in spreadsheet applications
http://www.bom.gov.au/fwo/IDW60901/IDW60901.94605.axf

JavaScript Object Notation format (JSON) in row-major order
http://www.bom.gov.au/fwo/IDW60901/IDW60901.94605.json